Time;durP1;ratioP1;P1;durP2;ratioP2;P2;SDS_P1;SDS_P2;PMS_P1;PMS_P2;Temp;Humidity;BMP_temperature;BMP_pressure;BME280_temperature;BME280_humidity;BME280_pressure;Samples;Min_cycle;Max_cycle;Signal;HPM_P1;HPM_P2
2021/11/07 13:07:01;;;;;;;;;;;;;;;;;;4745931;27;5767121;-88
2021/11/07 13:10:22;;;;;;;5.97;2.00;;;;;;;;;;4083008;27;17816950;-86
2021/11/07 13:31:43;;;;;;;5.13;1.65;;;;;;;;;;4971968;27;101773;-75
2021/11/07 13:34:13;;;;;;;3.60;1.45;;;;;;;;;;4890178;28;20046;-71
2021/11/07 13:36:40;;;;;;;5.40;1.98;;;;;;;;;;4800178;28;20374;-74
2021/11/07 13:39:06;;;;;;;7.72;1.80;;;;;;;;;;4950098;28;20030;-72
2021/11/07 13:41:32;;;;;;;4.22;1.70;;;;;;;;;;4968985;28;20369;-71
2021/11/07 13:43:58;;;;;;;6.43;1.70;;;;;;;;;;4983730;28;20034;-71
2021/11/07 13:46:24;;;;;;;11.90;2.10;;;;;;;;;;4968704;28;20065;-73
2021/11/07 13:49:01;;;;;;;10.82;2.20;;;;;;;;;;4988322;28;20133;-76
2021/11/07 13:51:26;;;;;;;6.68;2.00;;;;;;;;;;4985541;28;20460;-77
2021/11/07 13:53:52;;;;;;;6.78;1.77;;;;;;;;;;4987042;28;20340;-77
2021/11/07 13:56:17;;;;;;;4.03;1.70;;;;;;;;;;4986138;28;20497;-78
2021/11/07 13:58:42;;;;;;;5.60;1.70;;;;;;;;;;4987183;28;20350;-77
2021/11/07 14:01:08;;;;;;;9.33;1.93;;;;;;;;;;4985674;28;20494;-77
2021/11/07 14:03:33;;;;;;;5.00;1.83;;;;;;;;;;4985140;28;20026;-77
2021/11/07 14:06:11;;;;;;;5.50;1.70;;;;;;;;;;4984921;28;20104;-77
2021/11/07 14:26:37;;;;;;;6.60;1.83;;;;;;;;;;5066032;28;20650;-79
2021/11/07 16:31:53;;;;;;;2.45;1.40;;;;;;;;;;4997511;27;68659;-78
2021/11/07 16:34:18;;;;;;;4.30;1.52;;;;;;;;;;5004364;28;20734;-72
2021/11/07 16:36:46;;;;;;;4.72;1.80;;;;;;;;;;5047493;28;20060;-72
2021/11/07 16:39:15;;;;;;;2.58;1.50;;;;;;;;;;5047150;28;20021;-74
2021/11/07 16:41:45;;;;;;;5.20;1.90;;;;;;;;;;5047050;28;20036;-73
2021/11/07 16:44:11;;;;;;;4.03;1.92;;;;;;;;;;5047364;28;20017;-73
2021/11/07 16:46:40;;;;;;;3.95;2.00;;;;;;;;;;5046760;28;20488;-73
2021/11/07 16:49:06;;;;;;;3.35;2.00;;;;;;;;;;5047270;28;20029;-72
2021/11/07 16:51:37;;;;;;;2.22;1.77;;;;;;;;;;5046239;28;20651;-72
2021/11/07 16:54:17;;;;;;;4.68;1.83;;;;;;;;;;5046790;28;20484;-71
2021/11/07 16:56:42;;;;;;;4.57;2.28;;;;;;;;;;5047108;28;20017;-71
2021/11/07 16:59:26;;;;;;;4.20;1.70;;;;;;;;;;5047140;28;20041;-71
2021/11/07 17:02:01;;;;;;;2.33;1.90;;;;;;;;;;5047058;28;20454;-73
2021/11/07 17:04:52;;;;;;;3.55;2.00;;;;;;;;;;5046874;28;20021;-72
2021/11/07 17:07:24;;;;;;;4.45;2.00;;;;;;;;;;5043559;28;20418;-71
2021/11/07 17:09:53;;;;;;;3.35;1.80;;;;;;;;;;5046083;28;20026;-71
2021/11/07 17:12:21;;;;;;;3.45;1.73;;;;;;;;;;5046471;28;20009;-71
2021/11/07 17:14:49;;;;;;;3.17;1.90;;;;;;;;;;5046251;28;20017;-72
2021/11/07 17:17:24;;;;;;;3.25;1.63;;;;;;;;;;5046463;28;20052;-71
2021/11/07 17:19:54;;;;;;;6.38;2.33;;;;;;;;;;5045289;28;20420;-72
2021/11/07 17:25:06;;;;;;;2.17;1.73;;;;;;;;;;5046106;28;20028;-71
2021/11/07 17:30:07;;;;;;;2.30;1.80;;;;;;;;;;4992991;28;20376;-74
2021/11/07 17:32:41;;;;;;;4.15;2.08;;;;;;;;;;5056552;28;20020;-77
2021/11/07 17:35:21;;;;;;;3.00;1.80;;;;;;;;;;5056331;28;20025;-77
2021/11/07 18:08:57;;;;;;;4.95;1.88;;;;;;;;;;4981385;27;76050;-76
2021/11/07 18:12:31;;;;;;;;;;;;;;;;;;5128733;27;19942;-77
2021/11/07 18:14:56;;;;;;;;;;;;;;;;;;5128044;28;19922;-77
2021/11/07 18:17:21;;;;;;;;;;;;;;;;;;5127618;28;19912;-76
2021/11/07 18:19:46;;;;;;;;;;;;;;;;;;5128125;28;20277;-75
2021/11/07 18:22:29;;;;;;;;;;;;;;;;;;5128161;28;19911;-77
2021/11/07 18:24:59;;;;;;;;;;;;;;;;;;5109906;28;19907;-78
2021/11/07 18:27:27;;;;;;;;;;;;;;;;;;5127673;28;19955;-76
2021/11/07 18:29:52;;;;;;;;;;;;;;;;;;5127574;28;19922;-75
2021/11/07 18:32:17;;;;;;;;;;;;;;;;;;5127835;28;19919;-78
2021/11/07 18:34:43;;;;;;;;;;;;;;;;;;5127898;28;19939;-81
2021/11/07 18:37:09;;;;;;;;;;;;;;;;;;5109522;28;20346;-78
